Caddoa, Colorado
Current Conditions -  °F | °C
As of 10:53 AM on Sunday 23 Nov 2014 (Local Time) from KLAA Reporting Station
Scattered Clouds Scattered Clouds  
Wind Chill: 39°   Ceiling: Unl
Heat Index: 47°   Visibility: 9mi
Dew Point: 12°   Wind: 24mph
Humidity: 24%   Direction: 10°N
Pressure: 29.72"   Gusts: 38mph
Location:  38.0502°N, 102.919°W
Report Text: KLAA 231753Z AUTO 01021G33KT 9SM SCT120 08/M11 A2972 RMK AO2 PK WND 01035/1708 SLP050 T00831111 10083 20061 50030
Loading
Personal Weather Stations






























Interactive Weather Map New forecast layout! Learn more

10-Day Weather Forecast

Advertisements
Track Severe Weather on mobile